Terminal Aerodrome Forecast
Issued by NWS

Home | Current Version | Previous Version | Text Only | Print | Product List | Glossary Off
Versions: 1 2 3 4 5 6 7 8 9 10 11 12 13 14 15 16 17 18 19 20 21 22

000
FTUS41 KCLE 271740
TAFFDY
TAF
KFDY 271740Z 2718/2818 16007KT P6SM SCT045 BKN150
     FM271900 15005KT P6SM VCTS BKN050CB
      TEMPO 2719/2721 24012G22KT 3SM -TSRA BKN028CB OVC045
     FM272200 19008KT P6SM BKN050 BKN100
     FM280800 22003KT 4SM BR VCSH BKN015
     FM281300 27008KT P6SM BKN025=

USA.gov is the U.S. government's official web portal to all federal, state and local government web resources and services.